createdAt,value
2019-06-07T00:01:50.111Z,8.83
2019-06-07T00:04:21.447Z,4.73
2019-06-07T00:06:51.042Z,5.53
2019-06-07T00:09:22.558Z,5.10
2019-06-07T00:11:51.897Z,5.60
2019-06-07T00:14:21.410Z,6.03
2019-06-07T00:16:51.031Z,5.30
2019-06-07T00:19:20.423Z,5.47
2019-06-07T00:22:15.651Z,5.63
2019-06-07T00:24:22.214Z,5.77
2019-06-07T00:26:59.363Z,5.23
2019-06-07T00:29:23.351Z,6.27
2019-06-07T00:31:53.035Z,6.40
2019-06-07T00:34:23.353Z,6.13
2019-06-07T00:36:53.892Z,7.17
2019-06-07T00:39:25.819Z,7.03
2019-06-07T00:41:54.337Z,6.90
2019-06-07T00:44:23.761Z,8.33
2019-06-07T00:46:53.332Z,9.30
2019-06-07T00:49:40.071Z,7.70
2019-06-07T00:51:54.022Z,7.47
2019-06-07T00:54:24.837Z,7.67
2019-06-07T00:56:54.628Z,6.63
2019-06-07T00:59:29.190Z,6.23
2019-06-07T01:01:55.343Z,8.73
2019-06-07T01:04:26.349Z,9.30
2019-06-07T01:06:56.069Z,11.60
2019-06-07T01:09:25.687Z,6.70
2019-06-07T01:11:55.457Z,8.67
2019-06-07T01:14:27.972Z,12.03
2019-06-07T01:17:13.327Z,6.63
2019-06-07T01:19:27.947Z,7.40
2019-06-07T01:21:57.883Z,7.10
2019-06-07T01:24:28.013Z,8.10
2019-06-07T01:26:58.030Z,8.77
2019-06-07T01:29:30.740Z,9.73
2019-06-07T01:31:58.581Z,8.63
2019-06-07T01:34:28.892Z,8.33
2019-06-07T01:36:58.725Z,10.40
2019-06-07T01:39:31.424Z,8.07
2019-06-07T01:41:59.487Z,10.63
2019-06-07T01:44:31.058Z,11.03
2019-06-07T01:47:00.075Z,8.07
2019-06-07T01:49:29.993Z,9.30
2019-06-07T01:51:59.749Z,19.67
2019-06-07T01:57:00.410Z,12.40
2019-06-07T01:59:31.623Z,9.43
2019-06-07T02:02:01.127Z,11.60
2019-06-07T02:04:33.183Z,19.23
2019-06-07T02:07:01.633Z,8.80
2019-06-07T02:09:31.838Z,11.63
2019-06-07T02:12:01.682Z,14.10
2019-06-07T02:14:33.639Z,11.57
2019-06-07T02:17:02.896Z,10.33
2019-06-07T02:19:33.396Z,10.83
2019-06-07T02:22:03.336Z,10.23
2019-06-07T02:24:36.016Z,7.50
2019-06-07T02:27:03.797Z,8.07
2019-06-07T02:29:33.826Z,7.40
2019-06-07T02:32:03.574Z,14.20
2019-06-07T02:34:38.778Z,7.17
2019-06-07T02:37:04.361Z,6.70
2019-06-07T02:39:40.360Z,6.10
2019-06-07T02:42:06.050Z,5.60
2019-06-07T02:44:39.006Z,5.97
2019-06-07T02:47:06.538Z,6.33
2019-06-07T02:49:40.923Z,5.53
2019-06-07T02:52:07.114Z,5.50
2019-06-07T02:54:40.201Z,6.20
2019-06-07T02:57:07.551Z,6.30
2019-06-07T03:00:02.838Z,5.93
2019-06-07T03:02:07.976Z,4.83
2019-06-07T03:04:42.067Z,5.33
2019-06-07T03:07:10.206Z,5.97
2019-06-07T03:09:40.368Z,7.47
2019-06-07T03:12:13.970Z,5.70
2019-06-07T03:14:44.443Z,15.03
2019-06-07T03:17:45.076Z,11.00
2019-06-07T03:20:16.175Z,9.10
2019-06-07T03:22:45.630Z,19.67
2019-06-07T03:25:14.998Z,5.73
2019-06-07T03:27:49.941Z,14.03
2019-06-07T03:32:48.108Z,9.23
2019-06-07T03:35:17.922Z,16.17
2019-06-07T03:37:47.271Z,6.30
2019-06-07T03:40:16.886Z,12.07
2019-06-07T03:42:46.354Z,15.10
2019-06-07T03:45:16.057Z,25.47
2019-06-07T03:47:45.482Z,7.70
2019-06-07T03:50:15.186Z,14.70
2019-06-07T03:52:44.778Z,29.40
2019-06-07T03:55:14.320Z,5.80
2019-06-07T03:58:30.219Z,5.83
2019-06-07T04:00:15.289Z,5.83
2019-06-07T04:02:44.923Z,5.77
2019-06-07T04:05:14.616Z,5.27
2019-06-07T04:07:44.629Z,7.73
2019-06-07T04:10:14.518Z,11.57
2019-06-07T04:12:44.425Z,7.93
2019-06-07T04:15:14.071Z,5.83
2019-06-07T04:18:00.955Z,12.70
2019-06-07T04:20:14.784Z,12.57
2019-06-07T04:22:44.055Z,9.10
2019-06-07T04:25:13.811Z,7.33
2019-06-07T04:27:43.247Z,5.70
2019-06-07T04:30:13.166Z,6.30
2019-06-07T04:32:44.949Z,8.37
2019-06-07T04:35:13.859Z,10.80
2019-06-07T04:37:43.850Z,6.33
2019-06-07T04:40:13.342Z,5.40
2019-06-07T04:42:45.402Z,6.23
2019-06-07T04:45:33.008Z,7.70
2019-06-07T04:47:47.003Z,5.70
2019-06-07T04:50:16.991Z,6.33
2019-06-07T04:52:46.564Z,7.20
2019-06-07T04:55:16.088Z,5.50
2019-06-07T04:57:45.720Z,8.50
2019-06-07T05:00:48.735Z,5.63
2019-06-07T05:02:49.707Z,7.97
2019-06-07T05:05:19.110Z,8.40
2019-06-07T05:07:48.803Z,5.60
2019-06-07T05:10:18.297Z,5.10
2019-06-07T05:12:48.049Z,5.60
2019-06-07T05:15:17.591Z,5.33
2019-06-07T05:17:47.006Z,5.03
2019-06-07T05:20:16.590Z,7.93
2019-06-07T05:22:46.306Z,5.60
2019-06-07T05:25:16.328Z,5.20
2019-06-07T05:27:46.923Z,5.93
2019-06-07T05:30:59.859Z,9.10
2019-06-07T05:32:59.933Z,5.70
2019-06-07T05:35:31.067Z,6.30
2019-06-07T05:38:00.465Z,6.00
2019-06-07T05:40:36.545Z,6.27
2019-06-07T05:43:09.088Z,5.83
2019-06-07T05:45:43.090Z,6.00
2019-06-07T05:48:10.009Z,5.97
2019-06-07T05:50:50.055Z,6.97
2019-06-07T05:53:10.520Z,6.57
2019-06-07T05:55:44.162Z,6.70
2019-06-07T05:58:11.033Z,7.97
2019-06-07T06:00:41.589Z,7.10
2019-06-07T06:03:11.504Z,6.93
2019-06-07T06:05:45.841Z,7.27
2019-06-07T06:08:12.452Z,6.37
2019-06-07T06:10:46.122Z,7.10
2019-06-07T06:13:13.068Z,6.03
2019-06-07T06:15:55.935Z,6.73
2019-06-07T06:18:13.686Z,6.67
2019-06-07T06:21:08.562Z,6.97
2019-06-07T06:23:14.180Z,7.90
2019-06-07T06:25:52.454Z,7.53
2019-06-07T06:28:16.016Z,8.10
2019-06-07T06:30:49.343Z,6.90
2019-06-07T06:33:33.237Z,7.00
2019-06-07T06:35:50.955Z,6.80
2019-06-07T06:38:20.406Z,6.57
2019-06-07T06:41:11.733Z,7.30
2019-06-07T06:43:20.966Z,7.13
2019-06-07T06:45:50.837Z,7.30
2019-06-07T06:48:20.609Z,7.40
2019-06-07T06:50:52.324Z,6.83
2019-06-07T06:53:21.269Z,6.83
2019-06-07T06:55:51.419Z,6.20
2019-06-07T06:58:20.920Z,6.53
2019-06-07T07:01:05.247Z,6.60
2019-06-07T07:05:55.727Z,7.37
2019-06-07T07:08:25.607Z,8.77
2019-06-07T07:10:55.430Z,7.47
2019-06-07T07:13:25.066Z,10.73
2019-06-07T07:15:58.188Z,7.93
2019-06-07T07:18:25.497Z,8.03
2019-06-07T07:20:57.306Z,7.60
2019-06-07T07:23:26.304Z,7.57
2019-06-07T07:25:59.614Z,7.27
2019-06-07T07:28:27.047Z,8.83
2019-06-07T07:30:57.453Z,7.50
2019-06-07T07:34:20.291Z,7.77
2019-06-07T07:38:29.932Z,8.60
2019-06-07T07:41:14.037Z,7.83
2019-06-07T07:43:31.058Z,8.00
2019-06-07T07:46:03.546Z,7.97
2019-06-07T07:48:32.221Z,7.03
2019-06-07T07:51:03.467Z,10.10
2019-06-07T07:53:48.665Z,5.87
2019-06-07T07:56:04.262Z,5.87
2019-06-07T07:58:34.334Z,5.50
2019-06-07T08:01:10.376Z,5.20
2019-06-07T08:03:34.765Z,7.77
2019-06-07T08:06:04.258Z,4.73
2019-06-07T08:08:33.731Z,9.07
2019-06-07T08:11:03.330Z,5.10
2019-06-07T08:13:33.538Z,4.43
2019-06-07T08:16:09.678Z,5.03
2019-06-07T08:18:34.448Z,5.00
2019-06-07T08:21:21.539Z,4.67
2019-06-07T08:23:35.007Z,4.30
2019-06-07T08:26:06.282Z,4.07
2019-06-07T08:28:37.743Z,4.23
2019-06-07T08:31:08.183Z,4.00
2019-06-07T08:33:37.889Z,4.20
2019-06-07T08:36:21.798Z,3.60
2019-06-07T08:38:47.694Z,5.10
2019-06-07T08:41:12.328Z,4.23
2019-06-07T08:43:40.835Z,6.47
2019-06-07T08:46:10.351Z,3.90
2019-06-07T08:48:39.742Z,4.80
2019-06-07T08:51:09.098Z,3.83
2019-06-07T08:53:38.678Z,4.27
2019-06-07T08:56:11.126Z,5.23
2019-06-07T08:58:39.306Z,6.50
2019-06-07T09:01:09.275Z,4.20
2019-06-07T09:03:39.349Z,5.87
2019-06-07T09:06:53.883Z,4.00
2019-06-07T09:08:40.048Z,4.07
2019-06-07T09:11:11.314Z,4.97
2019-06-07T09:13:40.969Z,4.70
2019-06-07T09:16:10.587Z,4.03
2019-06-07T09:18:44.016Z,4.37
2019-06-07T09:21:11.160Z,5.07
2019-06-07T09:23:40.589Z,4.60
2019-06-07T09:26:16.635Z,7.90
2019-06-07T09:28:42.148Z,3.60
2019-06-07T09:31:12.817Z,3.43
2019-06-07T09:33:42.503Z,3.73
2019-06-07T09:36:13.279Z,3.80
2019-06-07T09:38:44.417Z,4.47
2019-06-07T09:41:14.032Z,3.63
2019-06-07T09:46:16.540Z,3.53
2019-06-07T09:49:14.097Z,4.67
2019-06-07T09:51:19.884Z,3.60
2019-06-07T09:53:48.367Z,3.10
2019-06-07T09:56:17.778Z,4.10
2019-06-07T09:58:53.135Z,4.30
2019-06-07T10:01:21.946Z,3.60
2019-06-07T10:03:51.606Z,4.43
2019-06-07T10:06:21.205Z,4.87
2019-06-07T10:11:22.291Z,3.83
2019-06-07T10:13:51.759Z,3.83
2019-06-07T10:16:21.328Z,4.17
2019-06-07T10:18:50.831Z,4.30
2019-06-07T10:21:20.485Z,3.00
2019-06-07T10:23:49.866Z,3.57
2019-06-07T10:26:19.384Z,3.70
2019-06-07T10:28:52.519Z,3.90
2019-06-07T10:31:20.567Z,4.70
2019-06-07T10:33:50.260Z,3.13
2019-06-07T10:36:19.789Z,3.27
2019-06-07T10:38:50.527Z,3.83
2019-06-07T10:41:20.089Z,2.70
2019-06-07T10:43:49.613Z,2.57
2019-06-07T10:46:19.093Z,2.80
2019-06-07T10:48:48.474Z,2.80
2019-06-07T10:51:18.143Z,3.40
2019-06-07T10:53:49.872Z,2.90
2019-06-07T10:56:19.317Z,2.90
2019-06-07T10:58:48.734Z,2.70
2019-06-07T11:01:18.109Z,2.03
2019-06-07T11:03:47.766Z,4.10
2019-06-07T11:06:17.318Z,2.60
2019-06-07T11:08:46.725Z,4.20
2019-06-07T11:11:16.385Z,3.90
2019-06-07T11:13:45.755Z,3.70
2019-06-07T11:16:15.724Z,3.67
2019-06-07T11:18:45.386Z,3.37
2019-06-07T11:21:14.838Z,3.83
2019-06-07T11:23:44.258Z,2.40
2019-06-07T11:26:14.480Z,5.30
2019-06-07T11:28:44.031Z,3.67
2019-06-07T11:31:15.090Z,2.27
2019-06-07T11:33:44.801Z,4.40
2019-06-07T11:36:15.272Z,2.37
2019-06-07T11:38:45.077Z,2.50
2019-06-07T11:41:15.907Z,3.83
2019-06-07T11:43:45.380Z,3.10
2019-06-07T11:46:33.866Z,2.97
2019-06-07T11:49:03.294Z,4.03
2019-06-07T11:51:32.748Z,4.60
2019-06-07T11:54:02.139Z,2.70
2019-06-07T11:56:31.786Z,3.40
2019-06-07T11:59:01.198Z,2.53
2019-06-07T12:01:32.841Z,2.50
2019-06-07T12:04:02.222Z,2.73
2019-06-07T12:06:31.770Z,3.57
2019-06-07T12:09:01.346Z,4.10
2019-06-07T12:11:30.943Z,3.77
2019-06-07T12:14:00.544Z,2.90
2019-06-07T12:16:30.175Z,3.77
2019-06-07T12:18:59.803Z,5.23
2019-06-07T12:21:29.207Z,2.77
2019-06-07T12:23:58.666Z,3.17
2019-06-07T12:26:28.195Z,3.83
2019-06-07T12:28:57.669Z,2.50
2019-06-07T12:31:27.334Z,3.10
2019-06-07T12:33:57.017Z,2.60
2019-06-07T12:36:26.418Z,5.57
2019-06-07T12:38:55.935Z,2.87
2019-06-07T12:41:25.639Z,3.10
2019-06-07T12:43:59.244Z,2.80
2019-06-07T12:46:28.732Z,5.27
2019-06-07T12:48:58.292Z,2.80
2019-06-07T12:51:27.680Z,6.40
2019-06-07T12:53:57.112Z,6.13
2019-06-07T12:56:26.684Z,3.60
2019-06-07T12:58:57.559Z,3.20
2019-06-07T13:01:27.055Z,3.30
2019-06-07T13:03:56.413Z,4.07
2019-06-07T13:06:26.039Z,2.50
2019-06-07T13:08:55.397Z,2.50
2019-06-07T13:11:29.509Z,2.87
2019-06-07T13:13:56.655Z,3.00
2019-06-07T13:16:26.386Z,3.70
2019-06-07T13:18:55.808Z,6.10
2019-06-07T13:21:25.769Z,2.57
2019-06-07T13:23:55.183Z,6.20
2019-06-07T13:26:25.043Z,4.10
2019-06-07T13:28:54.732Z,2.93
2019-06-07T13:31:25.214Z,3.00
2019-06-07T13:33:54.726Z,4.23
2019-06-07T13:36:24.517Z,4.73
2019-06-07T13:38:54.015Z,5.20
2019-06-07T13:41:36.341Z,4.50
2019-06-07T13:43:54.756Z,4.13
2019-06-07T13:46:25.276Z,5.23
2019-06-07T13:48:54.893Z,3.03
2019-06-07T13:51:26.540Z,2.70
2019-06-07T13:53:56.149Z,2.87
2019-06-07T13:56:26.054Z,3.50
2019-06-07T13:58:55.783Z,2.83
2019-06-07T14:01:27.226Z,2.63
2019-06-07T14:03:57.019Z,3.03
2019-06-07T14:06:28.176Z,2.60
2019-06-07T14:08:58.314Z,5.27
2019-06-07T14:11:28.003Z,2.60
2019-06-07T14:13:57.659Z,2.57
2019-06-07T14:16:28.274Z,2.42
2019-06-07T14:18:57.754Z,3.65
2019-06-07T14:21:28.666Z,3.05
2019-06-07T14:23:58.424Z,2.85
2019-06-07T14:26:27.870Z,2.45
2019-06-07T14:28:57.731Z,2.45
2019-06-07T14:31:28.051Z,1.98
2019-06-07T14:33:57.826Z,2.87
2019-06-07T14:36:27.409Z,4.10
2019-06-07T14:38:58.444Z,5.95
2019-06-07T14:41:29.549Z,4.87
2019-06-07T14:43:59.062Z,5.65
2019-06-07T14:46:30.169Z,4.58
2019-06-07T14:48:59.714Z,3.45
2019-06-07T14:51:31.319Z,2.50
2019-06-07T14:54:00.601Z,4.17
2019-06-07T14:56:31.366Z,3.90
2019-06-07T14:59:00.896Z,2.43
2019-06-07T15:01:30.753Z,8.25
2019-06-07T15:04:01.208Z,2.72
2019-06-07T15:06:30.719Z,5.25
2019-06-07T15:09:00.193Z,4.60
2019-06-07T15:11:31.060Z,4.95
2019-06-07T15:14:00.931Z,4.25
2019-06-07T15:16:31.922Z,3.87
2019-06-07T15:19:01.798Z,20.88
2019-06-07T15:21:31.349Z,2.40
2019-06-07T15:24:00.977Z,3.40
2019-06-07T15:26:30.488Z,5.03
2019-06-07T15:29:00.005Z,9.60
2019-06-07T15:31:29.873Z,2.70
2019-06-07T15:33:59.441Z,12.67
2019-06-07T15:36:30.187Z,7.13
2019-06-07T15:38:59.577Z,3.30
2019-06-07T15:41:29.049Z,7.30
2019-06-07T15:43:58.399Z,4.07
2019-06-07T15:46:29.346Z,5.07
2019-06-07T15:48:58.730Z,3.20
2019-06-07T15:51:28.090Z,7.60
2019-06-07T15:53:57.565Z,3.13
2019-06-07T15:56:27.235Z,2.53
2019-06-07T15:58:56.774Z,3.33
2019-06-07T16:01:26.373Z,3.83
2019-06-07T16:03:55.746Z,3.30
2019-06-07T16:06:25.276Z,7.27
2019-06-07T16:08:54.921Z,5.13
2019-06-07T16:11:24.398Z,3.13
2019-06-07T16:13:53.934Z,2.90
2019-06-07T16:16:23.404Z,2.40
2019-06-07T16:18:52.966Z,2.47
2019-06-07T16:21:22.659Z,2.10
2019-06-07T16:23:52.099Z,3.73
2019-06-07T16:26:21.655Z,3.73
2019-06-07T16:28:51.206Z,4.30
2019-06-07T16:31:22.613Z,3.00
2019-06-07T16:33:52.373Z,2.60
2019-06-07T16:36:21.943Z,3.13
2019-06-07T16:38:51.512Z,2.60
2019-06-07T16:41:21.160Z,3.77
2019-06-07T16:43:51.060Z,2.80
2019-06-07T16:46:20.893Z,5.73
2019-06-07T16:48:50.907Z,4.70
2019-06-07T16:51:20.371Z,3.67
2019-06-07T16:53:51.044Z,2.50
2019-06-07T16:56:20.461Z,2.57
2019-06-07T16:58:49.947Z,2.60
2019-06-07T17:01:19.303Z,7.10
2019-06-07T17:03:48.935Z,2.03
2019-06-07T17:06:18.427Z,17.57
2019-06-07T17:08:48.478Z,12.17
2019-06-07T17:11:18.359Z,10.77
2019-06-07T17:13:48.553Z,12.97
2019-06-07T17:16:18.426Z,6.63
2019-06-07T17:18:49.200Z,8.97
2019-06-07T17:21:18.972Z,7.33
2019-06-07T17:23:49.445Z,5.73
2019-06-07T17:26:19.365Z,7.40
2019-06-07T17:28:50.089Z,7.17
2019-06-07T17:31:19.835Z,5.23
2019-06-07T17:33:50.144Z,6.87
2019-06-07T17:36:20.110Z,4.83
2019-06-07T17:38:50.677Z,5.20
2019-06-07T17:41:20.188Z,2.57
2019-06-07T17:43:58.448Z,3.90
2019-06-07T17:46:20.962Z,4.70
2019-06-07T17:48:51.669Z,3.93
2019-06-07T17:51:21.194Z,4.30
2019-06-07T17:53:51.962Z,6.27
2019-06-07T17:56:21.612Z,2.17
2019-06-07T17:58:51.102Z,5.07
2019-06-07T18:01:20.621Z,2.57
2019-06-07T18:03:51.278Z,2.87
2019-06-07T18:06:21.393Z,1.70
2019-06-07T18:08:52.017Z,1.80
2019-06-07T18:11:21.622Z,3.90
2019-06-07T18:14:06.545Z,6.63
2019-06-07T18:16:22.360Z,4.53
2019-06-07T18:18:52.780Z,3.47
2019-06-07T18:21:22.634Z,1.63
2019-06-07T18:23:52.966Z,2.93
2019-06-07T18:26:22.735Z,0.53
2019-06-07T18:28:52.727Z,3.43
2019-06-07T18:31:22.499Z,2.93
2019-06-07T18:33:52.984Z,1.63
2019-06-07T18:36:22.824Z,4.63
2019-06-07T18:38:53.094Z,0.43
2019-06-07T18:41:23.125Z,4.33
2019-06-07T18:43:53.128Z,3.60
2019-06-07T18:46:22.931Z,1.13
2019-06-07T18:48:52.932Z,0.70
2019-06-07T18:51:22.633Z,5.13
2019-06-07T18:53:53.615Z,1.93
2019-06-07T18:56:23.898Z,2.60
2019-06-07T18:58:55.248Z,2.07
2019-06-07T19:01:25.159Z,4.07
2019-06-07T19:03:56.088Z,0.60
2019-06-07T19:06:26.145Z,1.63
2019-06-07T19:08:58.107Z,1.47
2019-06-07T19:11:27.268Z,1.50
2019-06-07T19:13:57.198Z,1.43
2019-06-07T19:16:26.686Z,1.30
2019-06-07T19:18:56.449Z,1.17
2019-06-07T19:21:26.691Z,1.57
2019-06-07T19:23:56.444Z,1.10
2019-06-07T19:26:26.299Z,0.93
2019-06-07T19:28:56.834Z,0.80
2019-06-07T19:31:26.767Z,0.83
2019-06-07T19:33:57.192Z,1.90
2019-06-07T19:36:27.006Z,0.73
2019-06-07T19:38:57.952Z,0.60
2019-06-07T19:41:27.693Z,4.47
2019-06-07T19:43:58.252Z,0.70
2019-06-07T19:46:27.949Z,0.37
2019-06-07T19:48:58.603Z,3.77
2019-06-07T19:51:28.762Z,1.27
2019-06-07T19:53:59.119Z,0.43
2019-06-07T19:56:28.597Z,3.00
2019-06-07T19:58:59.641Z,2.67
2019-06-07T20:01:29.320Z,1.50
2019-06-07T20:03:59.959Z,0.87
2019-06-07T20:06:29.752Z,2.20
2019-06-07T20:09:01.015Z,0.67
2019-06-07T20:11:31.241Z,0.60
2019-06-07T20:14:00.973Z,1.43
2019-06-07T20:16:30.367Z,1.60
2019-06-07T20:19:00.279Z,0.80
2019-06-07T20:21:30.175Z,5.43
2019-06-07T20:24:05.942Z,4.83
2019-06-07T20:26:31.066Z,1.73
2019-06-07T20:29:01.349Z,2.30
2019-06-07T20:31:31.434Z,3.33
2019-06-07T20:34:00.856Z,0.97
2019-06-07T20:36:30.417Z,0.83
2019-06-07T20:39:00.182Z,1.10
2019-06-07T20:41:29.796Z,2.33
2019-06-07T20:43:59.786Z,2.37
2019-06-07T20:46:29.287Z,1.43
2019-06-07T20:49:00.321Z,3.73
2019-06-07T20:51:30.827Z,1.03
2019-06-07T20:54:00.992Z,1.13
2019-06-07T20:56:30.491Z,1.13
2019-06-07T20:59:00.482Z,2.03
2019-06-07T21:01:31.095Z,0.60
2019-06-07T21:04:01.156Z,0.70
2019-06-07T21:06:30.752Z,1.20
2019-06-07T21:09:01.401Z,2.00
2019-06-07T21:11:31.387Z,0.60
2019-06-07T21:14:02.001Z,1.80
2019-06-07T21:16:31.809Z,0.80
2019-06-07T21:19:02.109Z,1.00
2019-06-07T21:21:32.161Z,1.40
2019-06-07T21:24:02.534Z,0.63
2019-06-07T21:26:32.180Z,1.43
2019-06-07T21:29:03.312Z,1.30
2019-06-07T21:31:32.871Z,1.27
2019-06-07T21:34:03.715Z,0.83
2019-06-07T21:36:33.813Z,0.60
2019-06-07T21:39:04.083Z,3.57
2019-06-07T21:41:33.707Z,2.10
2019-06-07T21:44:04.010Z,0.80
2019-06-07T21:46:35.923Z,3.00
2019-06-07T21:49:06.400Z,3.37
2019-06-07T21:51:36.203Z,1.63
2019-06-07T21:54:08.101Z,0.80
2019-06-07T21:56:37.182Z,2.20
2019-06-07T21:59:07.112Z,1.73
2019-06-07T22:01:36.757Z,2.13
2019-06-07T22:04:07.470Z,1.07
2019-06-07T22:06:37.160Z,0.67
2019-06-07T22:09:10.064Z,2.60
2019-06-07T22:11:39.598Z,2.47
2019-06-07T22:14:10.327Z,1.10
2019-06-07T22:16:41.628Z,0.87
2019-06-07T22:19:12.640Z,1.73
2019-06-07T22:21:42.453Z,0.67
2019-06-07T22:24:13.048Z,1.33
2019-06-07T22:26:42.598Z,2.63
2019-06-07T22:29:12.378Z,1.73
2019-06-07T22:31:41.982Z,1.57
2019-06-07T22:34:12.709Z,1.23
2019-06-07T22:36:42.489Z,3.63
2019-06-07T22:39:12.090Z,2.83
2019-06-07T22:41:41.623Z,0.97
2019-06-07T22:44:11.143Z,0.80
2019-06-07T22:46:40.634Z,2.93
2019-06-07T22:49:11.366Z,1.10
2019-06-07T22:51:40.908Z,1.30
2019-06-07T22:54:11.613Z,2.13
2019-06-07T22:56:46.965Z,0.80
2019-06-07T22:59:18.853Z,2.10
2019-06-07T23:01:47.771Z,0.80
2019-06-07T23:04:17.335Z,1.47
2019-06-07T23:06:46.831Z,2.00
2019-06-07T23:09:17.098Z,0.80
2019-06-07T23:11:46.724Z,0.70
2019-06-07T23:14:17.417Z,4.80
2019-06-07T23:16:55.223Z,1.07
2019-06-07T23:19:18.612Z,1.70
2019-06-07T23:21:48.074Z,1.67
2019-06-07T23:24:19.575Z,1.17
2019-06-07T23:26:48.725Z,1.10
2019-06-07T23:29:18.643Z,0.97
2019-06-07T23:31:48.136Z,1.03
2019-06-07T23:34:18.763Z,0.90
2019-06-07T23:36:48.231Z,0.80
2019-06-07T23:39:17.744Z,0.97
2019-06-07T23:41:47.347Z,2.70
2019-06-07T23:44:17.233Z,0.73
2019-06-07T23:46:46.718Z,1.30
2019-06-07T23:49:16.055Z,2.17
2019-06-07T23:51:45.449Z,1.33
2019-06-07T23:54:15.680Z,4.47
2019-06-07T23:56:45.438Z,1.57
2019-06-07T23:59:16.102Z,1.00
